Time;durP1;ratioP1;P1;durP2;ratioP2;P2;SDS_P1;SDS_P2;PMS_P1;PMS_P2;Temp;Humidity;BMP_temperature;BMP_pressure;BME280_temperature;BME280_humidity;BME280_pressure;Samples;Min_cycle;Max_cycle;Signal;HPM_P1;HPM_P2
2024/01/26 00:00:58;;;;;;;4.17;3.33;;;;;;;9.14;100.00;153706.75;5015270;28;20472;-79
2024/01/26 00:03:26;;;;;;;3.67;2.77;;;;;;;9.15;100.00;153709.34;5040824;28;20459;-79
2024/01/26 00:05:52;;;;;;;3.60;2.97;;;;;;;9.13;100.00;153704.19;5014730;28;20440;-79
2024/01/26 00:08:19;;;;;;;3.00;2.70;;;;;;;9.13;100.00;153704.19;5019204;28;20455;-79
2024/01/26 00:10:45;;;;;;;3.03;2.50;;;;;;;9.14;100.00;153708.03;5020447;28;20478;-79
2024/01/26 00:13:13;;;;;;;3.93;2.60;;;;;;;9.14;100.00;153708.03;5035010;28;21059;-79
2024/01/26 00:15:40;;;;;;;2.63;2.37;;;;;;;9.14;100.00;153706.75;5041112;28;20455;-79
2024/01/26 00:18:07;;;;;;;2.80;2.50;;;;;;;9.14;100.00;153706.75;5026419;28;20456;-79
2024/01/26 00:20:35;;;;;;;3.03;2.73;;;;;;;9.15;100.00;153710.66;5019329;28;20490;-79
2024/01/26 00:23:02;;;;;;;3.40;2.70;;;;;;;9.14;100.00;153708.03;5037628;28;20974;-79
2024/01/26 00:25:28;;;;;;;3.70;2.87;;;;;;;9.15;100.00;153709.34;5018118;28;20440;-79
2024/01/26 00:27:55;;;;;;;4.03;2.90;;;;;;;9.16;100.00;153713.22;5018056;28;20513;-79
2024/01/26 00:30:21;;;;;;;3.03;2.10;;;;;;;9.17;100.00;153714.50;5015023;28;20510;-79
2024/01/26 00:32:48;;;;;;;3.73;2.23;;;;;;;9.16;100.00;153711.91;5030458;28;20435;-79
2024/01/26 00:35:15;;;;;;;2.50;2.13;;;;;;;9.17;100.00;153714.50;5013723;28;20742;-79
2024/01/26 00:37:43;;;;;;;2.60;1.70;;;;;;;9.15;100.00;153709.34;5018602;28;20562;-79
2024/01/26 00:40:10;;;;;;;2.50;1.93;;;;;;;9.17;100.00;153714.50;5025017;28;20440;-79
2024/01/26 00:42:37;;;;;;;2.27;1.80;;;;;;;9.17;100.00;153714.50;5023766;28;20566;-79
2024/01/26 00:45:04;;;;;;;1.80;1.40;;;;;;;9.17;100.00;153714.50;5015045;28;20456;-79
2024/01/26 00:47:31;;;;;;;1.73;1.27;;;;;;;9.17;100.00;153714.50;5033437;28;20866;-79
2024/01/26 00:49:57;;;;;;;2.67;1.70;;;;;;;9.13;100.00;153704.19;5015587;28;20445;-79
2024/01/26 00:52:24;;;;;;;1.97;1.30;;;;;;;9.14;100.00;153706.75;5017064;28;20461;-79
2024/01/26 00:54:51;;;;;;;1.93;1.20;;;;;;;9.14;100.00;153706.75;5003967;28;20893;-79
2024/01/26 00:57:18;;;;;;;2.10;1.50;;;;;;;9.14;100.00;153706.75;5013373;28;20907;-78
2024/01/26 00:59:46;;;;;;;2.17;1.77;;;;;;;9.14;100.00;153708.03;5016806;28;20448;-79
2024/01/26 01:02:12;;;;;;;2.50;1.20;;;;;;;9.15;100.00;153709.34;5032662;28;20479;-78
2024/01/26 01:04:39;;;;;;;3.17;1.30;;;;;;;9.14;100.00;153706.75;5039553;28;20459;-79
2024/01/26 01:07:06;;;;;;;2.40;1.30;;;;;;;9.11;100.00;153698.97;5017256;28;20860;-79
2024/01/26 01:09:34;;;;;;;1.93;1.27;;;;;;;9.09;100.00;153695.13;5021088;28;20489;-79
2024/01/26 01:12:02;;;;;;;2.80;2.00;;;;;;;9.07;100.00;153688.66;5037365;28;20470;-79
2024/01/26 01:14:28;;;;;;;2.47;1.60;;;;;;;9.05;100.00;153683.50;5020024;28;20443;-79
2024/01/26 01:16:56;;;;;;;2.50;1.33;;;;;;;9.04;100.00;153682.19;5035661;28;20474;-78
2024/01/26 01:19:22;;;;;;;1.83;1.33;;;;;;;9.05;100.00;153683.50;5034383;28;20465;-78
2024/01/26 01:21:49;;;;;;;1.60;1.20;;;;;;;9.05;100.00;153683.50;5015804;28;20478;-79
2024/01/26 01:24:16;;;;;;;1.83;1.37;;;;;;;9.06;100.00;153686.06;5016166;28;20547;-79
2024/01/26 01:26:43;;;;;;;1.37;1.13;;;;;;;9.06;100.00;153686.06;5019485;28;21168;-79
2024/01/26 01:29:10;;;;;;;1.57;1.17;;;;;;;9.06;100.00;153687.34;5038334;28;20832;-79
2024/01/26 01:31:37;;;;;;;2.20;1.10;;;;;;;9.05;100.00;153683.50;5028861;28;20468;-78
2024/01/26 01:34:05;;;;;;;1.97;1.23;;;;;;;9.05;100.00;153683.50;5015618;28;20460;-79
2024/01/26 01:36:31;;;;;;;1.30;1.00;;;;;;;9.07;100.00;153688.66;5032609;28;20508;-79
2024/01/26 01:38:58;;;;;;;3.70;1.20;;;;;;;9.07;100.00;153689.97;5022764;28;20470;-78
2024/01/26 01:41:24;;;;;;;1.30;0.90;;;;;;;9.07;100.00;153689.97;5035152;28;20463;-78
2024/01/26 01:43:54;;;;;;;2.13;1.33;;;;;;;9.04;100.00;153682.19;5024003;28;20869;-78
2024/01/26 01:46:22;;;;;;;1.57;1.20;;;;;;;9.04;100.00;153680.88;5012794;28;20451;-78
2024/01/26 01:48:49;;;;;;;1.93;1.17;;;;;;;9.03;100.00;153679.59;5024974;28;20447;-79
2024/01/26 01:51:16;;;;;;;1.97;1.10;;;;;;;9.04;100.00;153680.88;5010000;28;20464;-79
2024/01/26 01:53:42;;;;;;;1.60;1.37;;;;;;;9.02;100.00;153675.72;5019301;28;20534;-79
2024/01/26 01:56:11;;;;;;;1.83;1.23;;;;;;;9.03;100.00;153678.28;5034823;28;20463;-79
2024/01/26 01:58:38;;;;;;;2.00;1.50;;;;;;;9.03;100.00;153678.28;5032480;28;20539;-79
2024/01/26 02:01:05;;;;;;;1.40;0.83;;;;;;;9.02;100.00;153675.72;5018508;28;20473;-79
2024/01/26 02:03:33;;;;;;;1.30;0.90;;;;;;;9.01;100.00;153673.13;5036077;28;20509;-79
2024/01/26 02:05:59;;;;;;;1.23;0.83;;;;;;;9.01;100.00;153673.13;5034816;28;21188;-79
2024/01/26 02:08:26;;;;;;;1.10;0.80;;;;;;;9.00;100.00;153670.56;5019888;28;20475;-79
2024/01/26 02:10:52;;;;;;;1.50;0.80;;;;;;;8.98;100.00;153666.66;5033005;28;20479;-78
2024/01/26 02:13:19;;;;;;;1.63;0.93;;;;;;;8.97;100.00;153662.81;5036941;28;20459;-79
2024/01/26 02:15:45;;;;;;;1.23;1.03;;;;;;;8.95;100.00;153658.91;5022884;28;20446;-79
2024/01/26 02:18:12;;;;;;;1.90;1.30;;;;;;;8.95;100.00;153657.59;5035024;28;20461;-79
2024/01/26 02:20:40;;;;;;;1.23;0.90;;;;;;;8.95;100.00;153657.59;5018641;28;20448;-79
2024/01/26 02:23:06;;;;;;;1.63;1.00;;;;;;;8.92;100.00;153651.13;5020426;28;20533;-79
2024/01/26 02:25:34;;;;;;;1.30;0.80;;;;;;;8.93;100.00;153653.72;5032378;28;20444;-79
2024/01/26 02:28:00;;;;;;;1.30;0.70;;;;;;;8.92;100.00;153649.88;5032548;28;20506;-78
2024/01/26 02:30:27;;;;;;;1.30;0.97;;;;;;;8.90;100.00;153644.66;5030155;28;20513;-78
2024/01/26 02:32:53;;;;;;;1.23;0.80;;;;;;;8.90;100.00;153644.66;5040990;28;20452;-79
2024/01/26 02:35:20;;;;;;;1.40;1.20;;;;;;;8.91;100.00;153648.56;5021621;28;20444;-79
2024/01/26 02:37:46;;;;;;;1.60;0.90;;;;;;;8.90;100.00;153644.66;5041454;28;21100;-78
2024/01/26 02:40:13;;;;;;;1.57;1.10;;;;;;;8.87;100.00;153638.22;5025962;28;20539;-78
2024/01/26 02:42:41;;;;;;;1.60;1.20;;;;;;;8.86;100.00;153634.34;5032086;28;20801;-79
2024/01/26 02:45:07;;;;;;;1.83;1.10;;;;;;;8.83;100.00;153626.59;5025427;28;20501;-79
2024/01/26 02:47:36;;;;;;;2.07;1.00;;;;;;;8.82;100.00;153623.97;5040603;28;20467;-78
2024/01/26 02:50:05;;;;;;;1.33;0.97;;;;;;;8.84;100.00;153629.19;5024769;28;20463;-79
2024/01/26 02:52:31;;;;;;;1.40;1.10;;;;;;;8.84;100.00;153630.44;5028446;28;20583;-79
2024/01/26 02:54:58;;;;;;;1.87;0.73;;;;;;;8.82;100.00;153625.28;5041116;28;20479;-79
2024/01/26 02:57:24;;;;;;;1.80;1.10;;;;;;;8.78;100.00;153614.97;5040694;28;20947;-79
2024/01/26 02:59:52;;;;;;;1.67;1.10;;;;;;;8.79;100.00;153616.25;5022324;28;20451;-79
2024/01/26 03:02:19;;;;;;;2.20;1.30;;;;;;;8.78;100.00;153613.66;5033413;28;20567;-78
2024/01/26 03:04:45;;;;;;;1.80;1.30;;;;;;;8.78;100.00;153613.66;5024312;28;20958;-78
2024/01/26 03:07:12;;;;;;;1.67;1.10;;;;;;;8.79;100.00;153616.25;5025460;28;20464;-79
2024/01/26 03:09:38;;;;;;;2.00;1.20;;;;;;;8.78;100.00;153613.66;5025127;28;20480;-78
2024/01/26 03:12:05;;;;;;;1.10;0.90;;;;;;;8.74;100.00;153604.59;5024198;28;20812;-79
2024/01/26 03:14:32;;;;;;;1.53;1.33;;;;;;;8.75;100.00;153607.19;5023602;28;20464;-80
2024/01/26 03:17:00;;;;;;;1.50;1.10;;;;;;;8.75;100.00;153607.19;5039591;28;20463;-80
2024/01/26 03:19:26;;;;;;;1.60;1.30;;;;;;;8.74;100.00;153603.28;5026817;28;20462;-80
2024/01/26 03:21:53;;;;;;;1.67;1.10;;;;;;;8.76;100.00;153609.81;5023396;28;20487;-80
2024/01/26 03:24:19;;;;;;;1.43;1.30;;;;;;;8.73;100.00;153600.72;5020199;28;20461;-80
2024/01/26 03:26:46;;;;;;;2.27;1.40;;;;;;;8.73;100.00;153602.03;5024832;28;20491;-80
2024/01/26 03:29:12;;;;;;;1.63;1.40;;;;;;;8.74;100.00;153603.28;5041917;28;20443;-80
2024/01/26 03:31:39;;;;;;;1.80;1.47;;;;;;;8.75;100.00;153605.91;5021423;28;20466;-79
2024/01/26 03:34:07;;;;;;;1.77;1.63;;;;;;;8.74;100.00;153603.28;5039079;28;20471;-80
2024/01/26 03:36:33;;;;;;;1.80;1.60;;;;;;;8.73;100.00;153602.03;5034445;28;20535;-80
2024/01/26 03:39:00;;;;;;;2.60;1.70;;;;;;;8.72;100.00;153598.13;5024576;28;20456;-80
2024/01/26 03:41:26;;;;;;;2.07;1.87;;;;;;;8.74;100.00;153603.28;5041913;28;20464;-80
2024/01/26 03:43:53;;;;;;;2.53;2.33;;;;;;;8.73;100.00;153600.72;5023800;28;20444;-80
2024/01/26 03:46:20;;;;;;;2.30;1.90;;;;;;;8.72;100.00;153599.44;5027642;28;20497;-79
2024/01/26 03:48:47;;;;;;;2.53;2.17;;;;;;;8.71;100.00;153595.56;5034784;28;20479;-79
2024/01/26 03:51:15;;;;;;;2.57;1.73;;;;;;;8.72;100.00;153598.13;5028627;28;20835;-80
2024/01/26 03:53:41;;;;;;;2.17;1.40;;;;;;;8.70;100.00;153594.28;5021779;28;20901;-80
2024/01/26 03:56:08;;;;;;;3.03;1.77;;;;;;;8.73;100.00;153600.72;5033245;28;20465;-80
2024/01/26 03:58:34;;;;;;;2.13;1.70;;;;;;;8.72;100.00;153598.13;5024395;28;20718;-80
2024/01/26 04:01:01;;;;;;;3.17;2.30;;;;;;;8.72;100.00;153598.13;5025626;28;20476;-80
2024/01/26 04:03:28;;;;;;;3.00;1.67;;;;;;;8.69;100.00;153591.66;5023841;28;20566;-80
2024/01/26 04:05:54;;;;;;;2.27;1.70;;;;;;;8.69;100.00;153590.38;5037554;28;20451;-80
2024/01/26 04:08:22;;;;;;;2.60;2.40;;;;;;;8.72;100.00;153598.13;5032472;28;20483;-80
2024/01/26 04:10:48;;;;;;;2.93;2.07;;;;;;;8.70;100.00;153592.97;5021054;28;21164;-80
2024/01/26 04:13:15;;;;;;;1.80;1.60;;;;;;;8.67;100.00;153585.22;5026293;28;21103;-80
2024/01/26 04:15:44;;;;;;;2.20;1.63;;;;;;;8.67;100.00;153586.50;5027896;28;20476;-80
2024/01/26 04:18:11;;;;;;;2.10;1.80;;;;;;;8.65;100.00;153580.03;5039914;28;20440;-80
2024/01/26 04:20:37;;;;;;;2.40;1.80;;;;;;;8.67;100.00;153585.22;5020011;28;20893;-80
2024/01/26 04:23:04;;;;;;;2.07;1.47;;;;;;;8.67;100.00;153585.22;5023302;28;20490;-80
2024/01/26 04:25:32;;;;;;;2.40;2.00;;;;;;;8.67;100.00;153585.22;5040019;28;20449;-80
2024/01/26 04:27:58;;;;;;;1.77;1.37;;;;;;;8.66;100.00;153582.66;5026693;28;20444;-80
2024/01/26 04:30:25;;;;;;;2.83;1.70;;;;;;;8.65;100.00;153581.34;5023238;28;20467;-80
2024/01/26 04:32:51;;;;;;;2.20;1.93;;;;;;;8.65;100.00;153581.34;5025816;28;20435;-80
2024/01/26 04:35:18;;;;;;;1.70;1.37;;;;;;;8.68;100.00;153587.81;5025457;28;20494;-80
2024/01/26 04:37:45;;;;;;;2.40;1.67;;;;;;;8.64;100.00;153578.75;5025640;28;20812;-80
2024/01/26 04:40:12;;;;;;;2.33;1.50;;;;;;;8.63;100.00;153574.88;5012248;28;20879;-80
2024/01/26 04:42:40;;;;;;;1.80;1.50;;;;;;;8.65;100.00;153580.03;5040484;28;20484;-80
2024/01/26 04:45:07;;;;;;;2.70;1.80;;;;;;;8.65;100.00;153581.34;5022337;28;20530;-80
2024/01/26 04:47:33;;;;;;;2.03;1.30;;;;;;;8.64;100.00;153578.75;5039685;28;20464;-79
2024/01/26 04:50:00;;;;;;;4.80;1.80;;;;;;;8.61;100.00;153570.97;5025232;28;20444;-79
2024/01/26 04:52:27;;;;;;;1.37;1.10;;;;;;;8.62;100.00;153572.28;5025738;28;20939;-79
2024/01/26 04:54:53;;;;;;;1.57;1.17;;;;;;;8.60;100.00;153567.13;5036709;28;20906;-79
2024/01/26 04:57:20;;;;;;;2.30;1.73;;;;;;;8.62;100.00;153573.59;5014337;28;20513;-80
2024/01/26 04:59:48;;;;;;;1.60;1.47;;;;;;;8.60;100.00;153567.13;5020244;28;20984;-79
2024/01/26 05:02:14;;;;;;;1.80;1.40;;;;;;;8.62;100.00;153572.28;5021887;28;20817;-79
2024/01/26 05:04:41;;;;;;;1.93;1.40;;;;;;;8.63;100.00;153576.13;5021397;28;20464;-80
2024/01/26 05:07:09;;;;;;;1.37;1.20;;;;;;;8.63;100.00;153574.88;5034435;28;20506;-79
2024/01/26 05:09:36;;;;;;;2.30;1.23;;;;;;;8.63;100.00;153576.13;5026966;28;20480;-79
2024/01/26 05:12:02;;;;;;;2.60;1.30;;;;;;;8.64;100.00;153577.44;5027781;28;20432;-79
2024/01/26 05:14:29;;;;;;;1.20;1.00;;;;;;;8.62;100.00;153572.28;5032716;28;20451;-79
2024/01/26 05:16:57;;;;;;;1.50;1.13;;;;;;;8.61;100.00;153570.97;5029007;28;20459;-79
2024/01/26 05:19:23;;;;;;;2.77;1.27;;;;;;;8.61;100.00;153569.69;5044292;28;20436;-79
2024/01/26 05:21:50;;;;;;;1.37;1.10;;;;;;;8.62;100.00;153572.28;5012370;28;20954;-79
2024/01/26 05:24:16;;;;;;;1.23;1.00;;;;;;;8.63;100.00;153574.88;5024563;28;20509;-79
2024/01/26 05:26:43;;;;;;;3.30;1.40;;;;;;;8.63;100.00;153574.88;5027317;28;20524;-79
2024/01/26 05:29:09;;;;;;;2.07;1.20;;;;;;;8.63;100.00;153574.88;5030702;28;20849;-79
2024/01/26 05:31:36;;;;;;;1.90;1.20;;;;;;;8.61;100.00;153570.97;5028458;28;20942;-78
2024/01/26 05:34:04;;;;;;;1.80;1.03;;;;;;;8.60;100.00;153567.13;5029158;28;20447;-79
2024/01/26 05:36:30;;;;;;;1.43;1.10;;;;;;;8.62;100.00;153572.28;5045962;28;20958;-79
2024/01/26 05:38:57;;;;;;;2.33;1.20;;;;;;;8.62;100.00;153572.28;5032011;28;20537;-79
2024/01/26 05:41:24;;;;;;;1.33;1.03;;;;;;;8.61;100.00;153569.69;5047053;28;20943;-80
2024/01/26 05:43:50;;;;;;;1.50;1.23;;;;;;;8.60;100.00;153567.13;5039164;28;20867;-80
2024/01/26 05:46:17;;;;;;;2.23;1.40;;;;;;;8.58;100.00;153564.53;5026118;28;20443;-79
2024/01/26 05:48:43;;;;;;;1.80;1.50;;;;;;;8.60;100.00;153567.13;5031907;28;20838;-79
2024/01/26 05:51:12;;;;;;;1.50;1.33;;;;;;;8.58;100.00;153563.22;5028891;28;20598;-79
2024/01/26 05:53:38;;;;;;;2.13;1.20;;;;;;;8.57;100.00;153560.66;5022504;28;20509;-79
2024/01/26 05:56:05;;;;;;;1.60;1.30;;;;;;;8.56;100.00;153559.38;5042751;28;20512;-79
2024/01/26 05:58:32;;;;;;;1.40;1.10;;;;;;;8.57;100.00;153560.66;5026785;28;20452;-79
2024/01/26 06:00:58;;;;;;;2.27;1.67;;;;;;;8.57;100.00;153561.97;5032482;28;20978;-79
2024/01/26 06:03:25;;;;;;;1.67;1.40;;;;;;;8.56;100.00;153558.06;5031447;28;20507;-79
2024/01/26 06:05:51;;;;;;;1.63;1.33;;;;;;;8.56;100.00;153558.06;5035657;28;20467;-79
2024/01/26 06:08:20;;;;;;;2.27;1.60;;;;;;;8.55;100.00;153556.75;5037877;28;20466;-77
2024/01/26 06:10:47;;;;;;;2.13;1.20;;;;;;;8.53;100.00;153551.59;5035421;28;20486;-79
2024/01/26 06:13:13;;;;;;;1.30;1.20;;;;;;;8.54;100.00;153552.91;5037850;28;20454;-79
2024/01/26 06:15:41;;;;;;;1.97;1.47;;;;;;;8.51;100.00;153546.44;5034407;28;20557;-79
2024/01/26 06:18:07;;;;;;;1.50;1.17;;;;;;;8.50;100.00;153543.84;5028133;28;20577;-79
2024/01/26 06:20:34;;;;;;;2.57;1.97;;;;;;;8.51;100.00;153546.44;5034280;28;20485;-80
2024/01/26 06:23:14;;;;;;;2.37;1.70;;;;;;;8.52;100.00;153547.75;5035802;28;20479;-78
2024/01/26 06:26:05;;;;;;;1.80;1.23;;;;;;;8.52;100.00;153549.00;5037952;28;20896;-78
2024/01/26 06:28:35;;;;;;;2.10;1.57;;;;;;;8.47;100.00;153536.06;5007335;28;20478;-78
2024/01/26 06:31:01;;;;;;;1.57;1.40;;;;;;;8.46;100.00;153533.53;5030306;28;20462;-78
2024/01/26 06:33:28;;;;;;;1.63;1.50;;;;;;;8.47;100.00;153536.06;5029806;28;20463;-78
2024/01/26 06:35:54;;;;;;;1.83;1.40;;;;;;;8.48;100.00;153538.69;5037634;28;20896;-78
2024/01/26 06:38:21;;;;;;;1.70;1.50;;;;;;;8.46;100.00;153532.22;5036069;28;20463;-78
2024/01/26 06:40:48;;;;;;;2.47;1.80;;;;;;;8.46;100.00;153532.22;5032535;28;20450;-78
2024/01/26 06:43:16;;;;;;;1.70;1.40;;;;;;;8.48;100.00;153538.69;5033152;28;20483;-78
2024/01/26 06:45:43;;;;;;;2.60;1.70;;;;;;;8.49;100.00;153539.97;5035654;28;20953;-78
2024/01/26 06:48:09;;;;;;;2.20;1.30;;;;;;;8.52;100.00;153549.00;5034006;28;20490;-78
2024/01/26 06:50:36;;;;;;;1.70;1.20;;;;;;;8.53;100.00;153551.59;5030022;28;21284;-79
2024/01/26 06:53:02;;;;;;;3.13;1.77;;;;;;;8.53;100.00;153551.59;5036534;28;20459;-79
2024/01/26 06:55:29;;;;;;;2.23;1.43;;;;;;;8.55;100.00;153556.75;5034101;28;20456;-79
2024/01/26 06:57:56;;;;;;;2.07;1.40;;;;;;;8.57;100.00;153560.66;5030121;28;20451;-79
2024/01/26 07:00:24;;;;;;;2.50;1.70;;;;;;;8.58;100.00;153563.22;5035465;28;20451;-79
2024/01/26 07:02:50;;;;;;;1.97;1.10;;;;;;;8.60;100.00;153568.44;5034806;28;20486;-78
2024/01/26 07:05:17;;;;;;;3.00;1.50;;;;;;;8.61;100.00;153569.69;5032669;28;20456;-79
2024/01/26 07:07:43;;;;;;;1.70;1.10;;;;;;;8.64;100.00;153577.44;5018171;28;20558;-78
2024/01/26 07:10:11;;;;;;;2.30;1.17;;;;;;;8.63;100.00;153574.88;5033452;28;20872;-79
2024/01/26 07:12:37;;;;;;;1.37;1.17;;;;;;;8.64;100.00;153577.44;5038233;28;20463;-79
2024/01/26 07:15:05;;;;;;;1.43;1.30;;;;;;;8.67;100.00;153586.50;5035163;28;20439;-79
2024/01/26 07:17:33;;;;;;;2.40;1.10;;;;;;;8.68;100.00;153589.13;5029007;28;20458;-79
2024/01/26 07:19:59;;;;;;;1.40;1.03;;;;;;;8.69;100.00;153590.38;5031924;28;20459;-79
2024/01/26 07:22:26;;;;;;;1.50;1.20;;;;;;;8.71;100.00;153595.56;5037070;28;20462;-79
2024/01/26 07:24:53;;;;;;;1.47;1.20;;;;;;;8.74;100.00;153603.28;5033336;28;20475;-79
2024/01/26 07:27:20;;;;;;;2.17;1.40;;;;;;;8.76;100.00;153608.50;5034172;28;20546;-79
2024/01/26 07:29:47;;;;;;;1.97;1.40;;;;;;;8.79;100.00;153616.25;5034712;28;20490;-78
2024/01/26 07:32:13;;;;;;;1.77;1.30;;;;;;;8.81;100.00;153622.72;5035015;28;20463;-79
2024/01/26 07:34:41;;;;;;;1.67;1.20;;;;;;;8.83;100.00;153626.59;5036937;28;20452;-78
2024/01/26 07:37:08;;;;;;;1.70;1.03;;;;;;;8.85;100.00;153631.75;5030706;28;20462;-79
2024/01/26 07:39:35;;;;;;;2.07;1.23;;;;;;;8.86;100.00;153634.34;5037091;28;20661;-78
2024/01/26 07:42:01;;;;;;;1.60;0.90;;;;;;;8.87;100.00;153636.94;5032333;28;20495;-79
2024/01/26 07:44:28;;;;;;;1.27;0.80;;;;;;;8.89;100.00;153643.41;5020359;28;20992;-78
2024/01/26 07:46:54;;;;;;;1.80;1.23;;;;;;;8.92;100.00;153649.88;5034764;28;20529;-79
2024/01/26 07:49:21;;;;;;;1.70;1.03;;;;;;;8.94;100.00;153656.34;5035242;28;20451;-78
2024/01/26 07:51:48;;;;;;;1.53;1.10;;;;;;;8.98;100.00;153665.34;5029897;28;21031;-78
2024/01/26 07:54:15;;;;;;;5.33;1.47;;;;;;;8.99;100.00;153667.97;5044076;28;20460;-78
2024/01/26 07:56:41;;;;;;;1.70;1.40;;;;;;;9.04;100.00;153680.88;5026569;28;20862;-78
2024/01/26 07:59:08;;;;;;;2.00;1.10;;;;;;;9.07;100.00;153688.66;5035993;28;20528;-78
2024/01/26 08:01:36;;;;;;;3.80;0.97;;;;;;;9.13;100.00;153704.19;5035662;28;20875;-78
2024/01/26 08:04:04;;;;;;;1.67;1.10;;;;;;;9.19;100.00;153719.69;5031823;28;20482;-78
2024/01/26 08:06:45;;;;;;;1.50;1.40;;;;;;;9.28;100.00;153741.69;5035020;28;20816;-78
2024/01/26 08:09:13;;;;;;;2.17;1.57;;;;;;;9.37;100.00;153764.97;5033896;28;20458;-78
2024/01/26 08:11:39;;;;;;;1.60;1.30;;;;;;;9.43;100.00;153780.47;5036362;28;20468;-78
2024/01/26 08:14:06;;;;;;;2.23;1.43;;;;;;;9.45;100.00;153786.94;5032353;28;20443;-78
2024/01/26 08:16:32;;;;;;;1.63;1.20;;;;;;;9.47;100.00;153792.13;5034031;28;20461;-78
2024/01/26 08:18:59;;;;;;;1.30;0.97;;;;;;;9.51;100.00;153802.47;5036433;28;21013;-78
2024/01/26 08:21:25;;;;;;;1.77;1.20;;;;;;;9.53;100.00;153807.63;5034309;28;20508;-78
2024/01/26 08:23:52;;;;;;;2.00;1.03;;;;;;;9.57;100.00;153818.00;5033435;28;20552;-78
2024/01/26 08:26:20;;;;;;;2.17;1.00;;;;;;;9.59;100.00;153821.88;5032347;28;20986;-78
2024/01/26 08:28:49;;;;;;;1.73;1.13;;;;;;;9.62;100.00;153830.94;5033173;28;20600;-78
2024/01/26 08:31:21;;;;;;;3.60;1.37;;;;;;;9.61;100.00;153828.34;5031191;28;20467;-78
2024/01/26 08:33:47;;;;;;;1.40;1.00;;;;;;;9.66;100.00;153840.00;5034155;28;20444;-78
2024/01/26 08:36:14;;;;;;;1.30;0.97;;;;;;;9.63;100.00;153833.53;5020696;28;20533;-78
2024/01/26 08:38:40;;;;;;;1.80;1.20;;;;;;;9.66;100.00;153840.00;5029847;28;20451;-78
2024/01/26 08:41:08;;;;;;;2.17;1.40;;;;;;;9.66;100.00;153841.25;5033031;28;21102;-78
2024/01/26 08:43:36;;;;;;;1.80;1.17;;;;;;;9.66;100.00;153841.25;5018772;28;20571;-78
2024/01/26 08:46:02;;;;;;;2.07;1.10;;;;;;;9.67;100.00;153843.88;5033541;28;20513;-79
2024/01/26 08:48:29;;;;;;;1.47;1.10;;;;;;;9.66;100.00;153841.25;5035573;28;20462;-79
2024/01/26 08:50:55;;;;;;;2.63;1.40;;;;;;;9.68;100.00;153845.16;5036557;28;20844;-79
2024/01/26 08:53:22;;;;;;;1.70;1.40;;;;;;;9.69;100.00;153849.03;5038004;28;20507;-79
2024/01/26 08:55:48;;;;;;;6.00;1.33;;;;;;;9.72;100.00;153856.81;5034321;28;20454;-78
2024/01/26 08:58:15;;;;;;;4.70;1.60;;;;;;;9.73;100.00;153859.41;5037041;28;21100;-79
2024/01/26 09:00:42;;;;;;;1.30;1.03;;;;;;;9.75;100.00;153864.56;5038093;28;21037;-79
2024/01/26 09:03:09;;;;;;;1.97;1.40;;;;;;;9.75;100.00;153864.56;5035012;28;20873;-78
2024/01/26 09:05:35;;;;;;;4.70;1.60;;;;;;;9.76;100.00;153865.88;5034996;28;20456;-77
2024/01/26 09:08:05;;;;;;;2.30;1.40;;;;;;;9.78;100.00;153872.34;5040414;28;20456;-78
2024/01/26 09:10:32;;;;;;;1.90;1.30;;;;;;;9.82;100.00;153880.13;5036990;28;20487;-79
2024/01/26 09:12:58;;;;;;;2.00;1.40;;;;;;;9.87;100.00;153893.06;5036800;28;20817;-78
2024/01/26 09:15:25;;;;;;;2.53;1.50;;;;;;;9.88;100.00;153895.59;5038819;28;20508;-80
2024/01/26 09:17:52;;;;;;;2.00;1.50;;;;;;;9.88;100.00;153895.59;5031768;28;20474;-78
2024/01/26 09:20:19;;;;;;;2.07;1.10;;;;;;;9.91;100.00;153904.69;5037119;28;20462;-78
2024/01/26 09:22:46;;;;;;;1.50;1.10;;;;;;;9.93;100.00;153909.84;5024469;28;20475;-78
2024/01/26 09:25:12;;;;;;;2.00;1.70;;;;;;;9.97;100.00;153918.91;5036901;28;21376;-80
2024/01/26 09:27:39;;;;;;;1.90;1.30;;;;;;;9.98;100.00;153922.78;5034667;28;20959;-80
2024/01/26 09:30:06;;;;;;;1.50;1.20;;;;;;;10.00;100.00;153926.69;5022263;28;20482;-80
2024/01/26 09:32:34;;;;;;;1.60;1.10;;;;;;;10.03;100.00;153934.47;5038647;28;20453;-79
2024/01/26 09:35:02;;;;;;;2.10;1.70;;;;;;;10.04;100.00;153937.03;5033640;28;20562;-79
2024/01/26 09:37:28;;;;;;;1.63;1.13;;;;;;;10.06;100.00;153943.50;5035098;28;20585;-80
2024/01/26 09:39:55;;;;;;;2.30;1.40;;;;;;;10.07;100.00;153944.81;5029698;28;20463;-80
2024/01/26 09:42:24;;;;;;;1.60;1.40;;;;;;;10.09;100.00;153949.97;5031306;28;20983;-79
2024/01/26 09:45:40;;;;;;;1.53;1.00;;;;;;;10.12;100.00;153959.09;5034504;28;20471;-79
2024/01/26 09:48:06;;;;;;;2.77;1.57;;;;;;;10.14;100.00;153963.00;5017595;28;20688;-78
2024/01/26 09:50:52;;;;;;;1.43;1.17;;;;;;;10.13;100.00;153960.41;5038094;28;20858;-79
2024/01/26 09:53:22;;;;;;;2.20;1.63;;;;;;;10.11;100.00;153955.19;5051261;28;20482;-79
2024/01/26 09:55:49;;;;;;;3.07;1.47;;;;;;;10.13;100.00;153960.41;5041245;28;20464;-79
2024/01/26 09:58:15;;;;;;;2.13;1.50;;;;;;;10.11;100.00;153956.44;5038268;28;20452;-79
2024/01/26 10:00:46;;;;;;;1.77;1.40;;;;;;;10.12;100.00;153957.72;5036425;28;20456;-79
2024/01/26 10:03:15;;;;;;;3.13;2.00;;;;;;;10.13;100.00;153960.41;5037927;28;20543;-79
2024/01/26 10:05:41;;;;;;;2.20;1.70;;;;;;;10.14;100.00;153964.25;5021880;28;20543;-79
2024/01/26 10:08:13;;;;;;;5.33;1.90;;;;;;;10.15;100.00;153965.56;5041483;28;20464;-79
2024/01/26 10:10:41;;;;;;;1.90;1.50;;;;;;;10.14;100.00;153964.25;5039456;28;20849;-79
2024/01/26 10:13:08;;;;;;;1.70;1.43;;;;;;;10.15;100.00;153965.56;5037743;28;20922;-79
2024/01/26 10:15:36;;;;;;;1.60;1.47;;;;;;;10.16;100.00;153968.16;5032150;28;20462;-79
2024/01/26 10:18:05;;;;;;;1.47;1.20;;;;;;;10.18;100.00;153973.34;5038369;28;20463;-79
2024/01/26 10:20:32;;;;;;;2.03;1.60;;;;;;;10.19;100.00;153975.94;5036168;28;20454;-79
2024/01/26 10:23:00;;;;;;;2.07;1.50;;;;;;;10.21;100.00;153982.41;5037935;28;20460;-79
2024/01/26 10:25:29;;;;;;;2.00;1.30;;;;;;;10.24;100.00;153988.88;5039790;28;20470;-79
2024/01/26 10:27:55;;;;;;;2.33;1.80;;;;;;;10.24;100.00;153988.88;5037302;28;20467;-79
2024/01/26 10:30:24;;;;;;;2.80;1.40;;;;;;;10.23;100.00;153987.56;5032576;28;20451;-79
2024/01/26 10:32:52;;;;;;;2.67;1.97;;;;;;;10.24;100.00;153988.88;5034498;28;20513;-79
2024/01/26 10:35:26;;;;;;;2.60;1.70;;;;;;;10.25;100.00;153991.44;5038695;28;20440;-79
2024/01/26 10:37:52;;;;;;;2.10;1.57;;;;;;;10.25;100.00;153991.44;5032896;28;20463;-79
2024/01/26 10:40:23;;;;;;;3.17;1.90;;;;;;;10.27;100.00;153996.66;5036283;28;20451;-79
2024/01/26 10:42:51;;;;;;;3.40;1.43;;;;;;;10.31;100.00;154008.28;5034410;28;20505;-80
2024/01/26 10:45:18;;;;;;;2.73;1.47;;;;;;;10.33;100.00;154012.16;5035523;28;20486;-79
2024/01/26 10:47:46;;;;;;;1.97;1.47;;;;;;;10.36;100.00;154019.94;5031725;28;20463;-80
2024/01/26 10:50:12;;;;;;;2.17;1.70;;;;;;;10.34;100.00;154016.06;5019757;28;20459;-80
2024/01/26 10:52:39;;;;;;;4.03;1.87;;;;;;;10.36;100.00;154019.94;5032875;28;20467;-79
2024/01/26 10:55:13;;;;;;;1.83;1.40;;;;;;;10.38;100.00;154026.41;5031373;28;20445;-79
2024/01/26 10:57:39;;;;;;;2.17;1.57;;;;;;;10.41;100.00;154032.88;5036528;28;20461;-79
2024/01/26 11:00:12;;;;;;;1.90;1.30;;;;;;;10.43;100.00;154038.09;5035590;28;20458;-79
2024/01/26 11:02:39;;;;;;;2.90;1.33;;;;;;;10.45;100.00;154043.25;5032131;28;20456;-80
2024/01/26 11:05:10;;;;;;;3.23;1.40;;;;;;;10.48;100.00;154049.72;5030253;28;20505;-80
2024/01/26 11:07:37;;;;;;;2.20;1.10;;;;;;;10.50;100.00;154054.88;5035148;28;20838;-79
2024/01/26 11:13:02;;;;;;;1.40;1.30;;;;;;;10.56;100.00;154071.75;5029467;28;20532;-78
2024/01/26 11:15:30;;;;;;;3.00;1.50;;;;;;;10.61;100.00;154084.69;5035263;28;20466;-78
2024/01/26 11:17:57;;;;;;;1.80;1.30;;;;;;;10.63;100.00;154088.56;5035250;28;20861;-78
2024/01/26 11:20:26;;;;;;;1.70;1.30;;;;;;;10.69;100.00;154104.09;5020031;28;20467;-78
2024/01/26 11:23:02;;;;;;;3.13;1.43;;;;;;;10.72;100.00;154113.13;5032739;28;20451;-78
2024/01/26 11:25:34;;;;;;;2.40;1.60;;;;;;;10.72;100.00;154111.88;5032666;28;21065;-80
2024/01/26 11:28:01;;;;;;;1.80;1.40;;;;;;;10.71;100.00;154110.56;5035596;28;20526;-79